sensor_id;sensor_type;location;lat;lon;timestamp;temperature;humidity
30399;DHT22;17195;50.838;7.214;2023-02-01T00:01:26;7.00;99.90
30399;DHT22;17195;50.838;7.214;2023-02-01T00:03:52;7.00;99.90
30399;DHT22;17195;50.838;7.214;2023-02-01T00:06:18;6.90;99.90
30399;DHT22;17195;50.838;7.214;2023-02-01T00:08:43;6.90;99.90
30399;DHT22;17195;50.838;7.214;2023-02-01T00:11:11;7.00;99.90
30399;DHT22;17195;50.838;7.214;2023-02-01T00:13:39;7.10;99.90
30399;DHT22;17195;50.838;7.214;2023-02-01T00:16:09;7.00;99.90
30399;DHT22;17195;50.838;7.214;2023-02-01T00:18:35;7.00;99.90
30399;DHT22;17195;50.838;7.214;2023-02-01T00:21:01;6.90;99.90
30399;DHT22;17195;50.838;7.214;2023-02-01T00:23:27;6.90;99.90
30399;DHT22;17195;50.838;7.214;2023-02-01T00:25:52;6.90;99.90
30399;DHT22;17195;50.838;7.214;2023-02-01T00:28:18;6.90;99.90
30399;DHT22;17195;50.838;7.214;2023-02-01T00:30:43;6.90;99.90
30399;DHT22;17195;50.838;7.214;2023-02-01T00:33:09;7.00;99.90
30399;DHT22;17195;50.838;7.214;2023-02-01T00:35:35;6.90;99.90
30399;DHT22;17195;50.838;7.214;2023-02-01T00:38:01;6.90;99.90
30399;DHT22;17195;50.838;7.214;2023-02-01T00:40:26;6.90;99.90
30399;DHT22;17195;50.838;7.214;2023-02-01T00:42:52;6.90;99.90
30399;DHT22;17195;50.838;7.214;2023-02-01T00:45:18;6.90;99.90
30399;DHT22;17195;50.838;7.214;2023-02-01T00:47:43;6.90;99.90
30399;DHT22;17195;50.838;7.214;2023-02-01T00:50:09;6.90;99.90
30399;DHT22;17195;50.838;7.214;2023-02-01T00:52:35;6.90;99.90
30399;DHT22;17195;50.838;7.214;2023-02-01T00:55:01;6.80;99.90
30399;DHT22;17195;50.838;7.214;2023-02-01T00:57:26;6.80;99.90
30399;DHT22;17195;50.838;7.214;2023-02-01T00:59:52;6.70;99.90
30399;DHT22;17195;50.838;7.214;2023-02-01T01:02:18;6.70;99.90
30399;DHT22;17195;50.838;7.214;2023-02-01T01:04:43;6.70;99.90
30399;DHT22;17195;50.838;7.214;2023-02-01T01:07:09;6.70;99.90
30399;DHT22;17195;50.838;7.214;2023-02-01T01:09:34;6.80;99.90
30399;DHT22;17195;50.838;7.214;2023-02-01T01:12:00;6.80;99.90
30399;DHT22;17195;50.838;7.214;2023-02-01T01:14:28;6.80;99.90
30399;DHT22;17195;50.838;7.214;2023-02-01T01:16:54;6.80;99.90
30399;DHT22;17195;50.838;7.214;2023-02-01T01:19:19;6.80;99.90
30399;DHT22;17195;50.838;7.214;2023-02-01T01:21:45;6.80;99.90
30399;DHT22;17195;50.838;7.214;2023-02-01T01:24:10;6.80;99.90
30399;DHT22;17195;50.838;7.214;2023-02-01T01:26:36;6.90;99.90
30399;DHT22;17195;50.838;7.214;2023-02-01T01:29:02;6.80;99.90
30399;DHT22;17195;50.838;7.214;2023-02-01T01:31:28;6.80;99.90
30399;DHT22;17195;50.838;7.214;2023-02-01T01:33:56;6.80;99.90
30399;DHT22;17195;50.838;7.214;2023-02-01T01:36:22;6.80;99.90
30399;DHT22;17195;50.838;7.214;2023-02-01T01:38:48;6.80;99.90
30399;DHT22;17195;50.838;7.214;2023-02-01T01:41:32;6.80;99.90
30399;DHT22;17195;50.838;7.214;2023-02-01T01:46:30;6.80;99.90
30399;DHT22;17195;50.838;7.214;2023-02-01T01:48:58;6.70;99.90
30399;DHT22;17195;50.838;7.214;2023-02-01T01:51:28;6.70;99.90
30399;DHT22;17195;50.838;7.214;2023-02-01T01:54:14;6.70;99.90
30399;DHT22;17195;50.838;7.214;2023-02-01T01:56:44;6.70;99.90
30399;DHT22;17195;50.838;7.214;2023-02-01T01:59:11;6.70;99.90
30399;DHT22;17195;50.838;7.214;2023-02-01T02:01:38;6.70;99.90
30399;DHT22;17195;50.838;7.214;2023-02-01T02:04:04;6.60;99.90
30399;DHT22;17195;50.838;7.214;2023-02-01T02:09:16;6.70;99.90
30399;DHT22;17195;50.838;7.214;2023-02-01T02:11:41;6.70;99.90
30399;DHT22;17195;50.838;7.214;2023-02-01T02:14:09;6.60;99.90
30399;DHT22;17195;50.838;7.214;2023-02-01T02:36:08;6.60;99.90
30399;DHT22;17195;50.838;7.214;2023-02-01T02:44:39;6.70;99.90
30399;DHT22;17195;50.838;7.214;2023-02-01T02:50:35;6.70;99.90
30399;DHT22;17195;50.838;7.214;2023-02-01T02:53:28;6.70;99.90
30399;DHT22;17195;50.838;7.214;2023-02-01T02:56:21;6.80;99.90
30399;DHT22;17195;50.838;7.214;2023-02-01T02:59:09;6.70;99.90
30399;DHT22;17195;50.838;7.214;2023-02-01T03:01:55;6.70;99.90
30399;DHT22;17195;50.838;7.214;2023-02-01T03:04:39;6.70;99.90
30399;DHT22;17195;50.838;7.214;2023-02-01T03:09:58;6.80;99.90
30399;DHT22;17195;50.838;7.214;2023-02-01T03:12:29;6.80;99.90
30399;DHT22;17195;50.838;7.214;2023-02-01T03:15:15;6.70;99.90
30399;DHT22;17195;50.838;7.214;2023-02-01T03:17:43;6.70;99.90
30399;DHT22;17195;50.838;7.214;2023-02-01T03:20:11;6.70;99.90
30399;DHT22;17195;50.838;7.214;2023-02-01T03:22:40;6.70;99.90
30399;DHT22;17195;50.838;7.214;2023-02-01T03:25:13;6.70;99.90
30399;DHT22;17195;50.838;7.214;2023-02-01T03:27:55;6.70;99.90
30399;DHT22;17195;50.838;7.214;2023-02-01T03:30:42;6.70;99.90
30399;DHT22;17195;50.838;7.214;2023-02-01T03:33:14;6.70;99.90
30399;DHT22;17195;50.838;7.214;2023-02-01T03:38:35;6.70;99.90
30399;DHT22;17195;50.838;7.214;2023-02-01T03:41:13;6.70;99.90
30399;DHT22;17195;50.838;7.214;2023-02-01T03:46:45;6.80;99.90
30399;DHT22;17195;50.838;7.214;2023-02-01T03:49:17;6.80;99.90
30399;DHT22;17195;50.838;7.214;2023-02-01T03:51:43;6.80;99.90
30399;DHT22;17195;50.838;7.214;2023-02-01T03:54:12;6.80;99.90
30399;DHT22;17195;50.838;7.214;2023-02-01T03:56:42;6.80;99.90
30399;DHT22;17195;50.838;7.214;2023-02-01T03:59:10;6.70;99.90
30399;DHT22;17195;50.838;7.214;2023-02-01T04:01:35;6.70;99.90
30399;DHT22;17195;50.838;7.214;2023-02-01T04:04:01;6.60;99.90
30399;DHT22;17195;50.838;7.214;2023-02-01T04:06:26;6.60;99.90
30399;DHT22;17195;50.838;7.214;2023-02-01T04:08:52;6.60;99.90
30399;DHT22;17195;50.838;7.214;2023-02-01T04:11:18;6.50;99.90
30399;DHT22;17195;50.838;7.214;2023-02-01T04:13:44;6.50;99.90
30399;DHT22;17195;50.838;7.214;2023-02-01T04:16:09;6.40;99.90
30399;DHT22;17195;50.838;7.214;2023-02-01T04:18:35;6.50;99.90
30399;DHT22;17195;50.838;7.214;2023-02-01T04:21:01;6.50;99.90
30399;DHT22;17195;50.838;7.214;2023-02-01T04:23:28;6.50;99.90
30399;DHT22;17195;50.838;7.214;2023-02-01T04:25:59;6.60;99.90
30399;DHT22;17195;50.838;7.214;2023-02-01T04:28:24;6.60;99.90
30399;DHT22;17195;50.838;7.214;2023-02-01T04:30:50;6.70;99.90
30399;DHT22;17195;50.838;7.214;2023-02-01T04:33:15;6.60;99.90
30399;DHT22;17195;50.838;7.214;2023-02-01T04:35:41;6.60;99.90
30399;DHT22;17195;50.838;7.214;2023-02-01T04:38:06;6.60;99.90
30399;DHT22;17195;50.838;7.214;2023-02-01T04:40:32;6.60;99.90
30399;DHT22;17195;50.838;7.214;2023-02-01T04:42:58;6.60;99.90
30399;DHT22;17195;50.838;7.214;2023-02-01T04:45:23;6.80;99.90
30399;DHT22;17195;50.838;7.214;2023-02-01T04:47:49;6.70;99.90
30399;DHT22;17195;50.838;7.214;2023-02-01T04:50:15;6.70;99.90
30399;DHT22;17195;50.838;7.214;2023-02-01T04:52:40;6.70;99.90
30399;DHT22;17195;50.838;7.214;2023-02-01T04:55:07;6.70;99.90
30399;DHT22;17195;50.838;7.214;2023-02-01T04:57:33;6.80;99.90
30399;DHT22;17195;50.838;7.214;2023-02-01T04:59:58;6.70;99.90
30399;DHT22;17195;50.838;7.214;2023-02-01T05:02:24;6.70;99.90
30399;DHT22;17195;50.838;7.214;2023-02-01T05:04:49;6.60;99.90
30399;DHT22;17195;50.838;7.214;2023-02-01T05:07:16;6.50;99.90
30399;DHT22;17195;50.838;7.214;2023-02-01T05:09:41;6.40;99.90
30399;DHT22;17195;50.838;7.214;2023-02-01T05:12:09;6.40;99.90
30399;DHT22;17195;50.838;7.214;2023-02-01T05:14:54;6.30;99.90
30399;DHT22;17195;50.838;7.214;2023-02-01T05:17:19;6.30;99.90
30399;DHT22;17195;50.838;7.214;2023-02-01T05:19:45;6.20;99.90
30399;DHT22;17195;50.838;7.214;2023-02-01T05:22:10;6.20;99.90
30399;DHT22;17195;50.838;7.214;2023-02-01T05:24:36;6.10;99.90
30399;DHT22;17195;50.838;7.214;2023-02-01T05:27:01;6.10;99.90
30399;DHT22;17195;50.838;7.214;2023-02-01T05:29:27;6.10;99.90
30399;DHT22;17195;50.838;7.214;2023-02-01T05:31:52;6.20;99.90
30399;DHT22;17195;50.838;7.214;2023-02-01T05:34:18;6.30;99.90
30399;DHT22;17195;50.838;7.214;2023-02-01T05:36:43;6.30;99.90
30399;DHT22;17195;50.838;7.214;2023-02-01T05:39:09;6.30;99.90
30399;DHT22;17195;50.838;7.214;2023-02-01T05:41:35;6.30;99.90
30399;DHT22;17195;50.838;7.214;2023-02-01T05:44:01;6.20;99.90
30399;DHT22;17195;50.838;7.214;2023-02-01T05:46:26;6.30;99.90
30399;DHT22;17195;50.838;7.214;2023-02-01T05:48:52;6.40;99.90
30399;DHT22;17195;50.838;7.214;2023-02-01T05:51:17;6.40;99.90
30399;DHT22;17195;50.838;7.214;2023-02-01T05:53:43;6.30;99.90
30399;DHT22;17195;50.838;7.214;2023-02-01T05:56:08;6.30;99.90
30399;DHT22;17195;50.838;7.214;2023-02-01T05:58:34;6.30;99.90
30399;DHT22;17195;50.838;7.214;2023-02-01T06:01:00;6.20;99.90
30399;DHT22;17195;50.838;7.214;2023-02-01T06:03:26;6.20;99.90
30399;DHT22;17195;50.838;7.214;2023-02-01T06:05:52;6.20;99.90
30399;DHT22;17195;50.838;7.214;2023-02-01T06:08:18;6.20;99.90
30399;DHT22;17195;50.838;7.214;2023-02-01T06:10:43;6.20;99.90
30399;DHT22;17195;50.838;7.214;2023-02-01T06:13:09;6.20;99.90
30399;DHT22;17195;50.838;7.214;2023-02-01T06:15:35;6.20;99.90
30399;DHT22;17195;50.838;7.214;2023-02-01T06:18:03;6.30;99.90
30399;DHT22;17195;50.838;7.214;2023-02-01T06:20:29;6.30;99.90
30399;DHT22;17195;50.838;7.214;2023-02-01T06:22:54;6.30;99.90
30399;DHT22;17195;50.838;7.214;2023-02-01T06:25:20;6.30;99.90
30399;DHT22;17195;50.838;7.214;2023-02-01T06:27:46;6.30;99.90
30399;DHT22;17195;50.838;7.214;2023-02-01T06:30:12;6.20;99.90
30399;DHT22;17195;50.838;7.214;2023-02-01T06:32:41;6.20;99.90
30399;DHT22;17195;50.838;7.214;2023-02-01T06:35:08;6.20;99.90
30399;DHT22;17195;50.838;7.214;2023-02-01T06:37:36;6.20;99.90
30399;DHT22;17195;50.838;7.214;2023-02-01T06:40:03;6.10;99.90
30399;DHT22;17195;50.838;7.214;2023-02-01T06:42:28;6.10;99.90
30399;DHT22;17195;50.838;7.214;2023-02-01T06:44:54;6.10;99.90
30399;DHT22;17195;50.838;7.214;2023-02-01T06:47:19;6.10;99.90
30399;DHT22;17195;50.838;7.214;2023-02-01T06:49:45;6.10;99.90
30399;DHT22;17195;50.838;7.214;2023-02-01T06:52:10;6.10;99.90
30399;DHT22;17195;50.838;7.214;2023-02-01T06:54:36;6.20;99.90
30399;DHT22;17195;50.838;7.214;2023-02-01T06:57:03;6.20;99.90
30399;DHT22;17195;50.838;7.214;2023-02-01T06:59:28;6.10;99.90
30399;DHT22;17195;50.838;7.214;2023-02-01T07:01:54;6.00;99.90
30399;DHT22;17195;50.838;7.214;2023-02-01T07:04:20;6.10;99.90
30399;DHT22;17195;50.838;7.214;2023-02-01T07:06:45;6.10;99.90
30399;DHT22;17195;50.838;7.214;2023-02-01T07:09:11;6.10;99.90
30399;DHT22;17195;50.838;7.214;2023-02-01T07:11:37;6.20;99.90
30399;DHT22;17195;50.838;7.214;2023-02-01T07:14:06;6.10;99.90
30399;DHT22;17195;50.838;7.214;2023-02-01T07:16:31;6.10;99.90
30399;DHT22;17195;50.838;7.214;2023-02-01T07:18:57;6.10;99.90
30399;DHT22;17195;50.838;7.214;2023-02-01T07:21:23;6.20;99.90
30399;DHT22;17195;50.838;7.214;2023-02-01T07:23:49;6.20;99.90
30399;DHT22;17195;50.838;7.214;2023-02-01T07:26:15;6.10;99.90
30399;DHT22;17195;50.838;7.214;2023-02-01T07:28:42;6.20;99.90
30399;DHT22;17195;50.838;7.214;2023-02-01T07:31:10;6.20;99.90
30399;DHT22;17195;50.838;7.214;2023-02-01T07:33:36;6.30;99.90
30399;DHT22;17195;50.838;7.214;2023-02-01T07:36:04;6.30;99.90
30399;DHT22;17195;50.838;7.214;2023-02-01T07:38:30;6.40;99.90
30399;DHT22;17195;50.838;7.214;2023-02-01T07:41:00;6.40;99.90
30399;DHT22;17195;50.838;7.214;2023-02-01T07:43:26;6.50;99.90
30399;DHT22;17195;50.838;7.214;2023-02-01T07:45:53;6.50;99.90
30399;DHT22;17195;50.838;7.214;2023-02-01T07:48:19;6.50;99.90
30399;DHT22;17195;50.838;7.214;2023-02-01T07:50:45;6.50;99.90
30399;DHT22;17195;50.838;7.214;2023-02-01T07:53:10;6.40;99.90
30399;DHT22;17195;50.838;7.214;2023-02-01T07:55:39;6.50;99.90
30399;DHT22;17195;50.838;7.214;2023-02-01T07:58:05;6.50;99.90
30399;DHT22;17195;50.838;7.214;2023-02-01T08:00:31;6.50;99.90
30399;DHT22;17195;50.838;7.214;2023-02-01T08:03:35;6.50;99.90
30399;DHT22;17195;50.838;7.214;2023-02-01T08:06:00;6.50;99.90
30399;DHT22;17195;50.838;7.214;2023-02-01T08:08:26;6.40;99.90
30399;DHT22;17195;50.838;7.214;2023-02-01T08:10:56;6.50;99.90
30399;DHT22;17195;50.838;7.214;2023-02-01T08:13:21;6.50;99.90
30399;DHT22;17195;50.838;7.214;2023-02-01T08:15:47;6.40;99.90
30399;DHT22;17195;50.838;7.214;2023-02-01T08:18:12;6.40;99.90
30399;DHT22;17195;50.838;7.214;2023-02-01T08:20:41;6.50;99.90
30399;DHT22;17195;50.838;7.214;2023-02-01T08:23:08;6.50;99.90
30399;DHT22;17195;50.838;7.214;2023-02-01T08:25:34;6.50;99.90
30399;DHT22;17195;50.838;7.214;2023-02-01T08:28:01;6.50;99.90
30399;DHT22;17195;50.838;7.214;2023-02-01T08:30:27;6.50;99.90
30399;DHT22;17195;50.838;7.214;2023-02-01T08:32:53;6.60;99.90
30399;DHT22;17195;50.838;7.214;2023-02-01T08:35:18;6.60;99.90
30399;DHT22;17195;50.838;7.214;2023-02-01T08:37:44;6.70;99.90
30399;DHT22;17195;50.838;7.214;2023-02-01T08:40:10;6.70;99.90
30399;DHT22;17195;50.838;7.214;2023-02-01T08:42:35;6.60;99.90
30399;DHT22;17195;50.838;7.214;2023-02-01T08:45:25;6.70;99.90
30399;DHT22;17195;50.838;7.214;2023-02-01T08:47:53;6.70;99.90
30399;DHT22;17195;50.838;7.214;2023-02-01T08:50:20;6.70;99.90
30399;DHT22;17195;50.838;7.214;2023-02-01T08:52:46;6.70;99.90
30399;DHT22;17195;50.838;7.214;2023-02-01T08:55:13;6.70;99.90
30399;DHT22;17195;50.838;7.214;2023-02-01T08:57:39;6.80;99.90
30399;DHT22;17195;50.838;7.214;2023-02-01T09:00:10;6.70;99.90
30399;DHT22;17195;50.838;7.214;2023-02-01T09:02:36;6.70;99.90
30399;DHT22;17195;50.838;7.214;2023-02-01T09:05:02;6.80;99.90
30399;DHT22;17195;50.838;7.214;2023-02-01T09:07:28;6.80;99.90
30399;DHT22;17195;50.838;7.214;2023-02-01T09:09:54;6.90;99.90
30399;DHT22;17195;50.838;7.214;2023-02-01T09:12:22;6.90;99.90
30399;DHT22;17195;50.838;7.214;2023-02-01T09:14:47;6.90;99.90
30399;DHT22;17195;50.838;7.214;2023-02-01T09:17:13;7.00;99.90
30399;DHT22;17195;50.838;7.214;2023-02-01T09:19:39;7.10;99.90
30399;DHT22;17195;50.838;7.214;2023-02-01T09:22:04;7.30;99.90
30399;DHT22;17195;50.838;7.214;2023-02-01T09:24:30;7.30;99.90
30399;DHT22;17195;50.838;7.214;2023-02-01T09:26:55;7.40;99.90
30399;DHT22;17195;50.838;7.214;2023-02-01T09:29:21;7.40;99.90
30399;DHT22;17195;50.838;7.214;2023-02-01T09:31:46;7.60;99.90
30399;DHT22;17195;50.838;7.214;2023-02-01T09:34:12;7.60;99.90
30399;DHT22;17195;50.838;7.214;2023-02-01T09:36:38;7.60;99.90
30399;DHT22;17195;50.838;7.214;2023-02-01T09:39:04;7.50;99.90
30399;DHT22;17195;50.838;7.214;2023-02-01T09:47:15;7.40;99.90
30399;DHT22;17195;50.838;7.214;2023-02-01T09:50:15;7.40;99.90
30399;DHT22;17195;50.838;7.214;2023-02-01T09:53:10;7.30;99.90
30399;DHT22;17195;50.838;7.214;2023-02-01T09:55:45;7.40;99.90
30399;DHT22;17195;50.838;7.214;2023-02-01T10:01:30;7.50;99.90
30399;DHT22;17195;50.838;7.214;2023-02-01T10:04:12;7.50;99.90
30399;DHT22;17195;50.838;7.214;2023-02-01T10:09:34;7.60;99.90
30399;DHT22;17195;50.838;7.214;2023-02-01T10:26:42;7.40;99.90
30399;DHT22;17195;50.838;7.214;2023-02-01T10:29:16;7.40;99.90
30399;DHT22;17195;50.838;7.214;2023-02-01T10:31:43;7.50;99.90
30399;DHT22;17195;50.838;7.214;2023-02-01T10:39:37;7.80;99.90
30399;DHT22;17195;50.838;7.214;2023-02-01T10:42:03;7.80;99.90
30399;DHT22;17195;50.838;7.214;2023-02-01T10:44:30;7.90;99.90
30399;DHT22;17195;50.838;7.214;2023-02-01T10:46:56;7.90;99.90
30399;DHT22;17195;50.838;7.214;2023-02-01T10:49:26;7.90;99.90
30399;DHT22;17195;50.838;7.214;2023-02-01T10:52:00;8.00;99.90
30399;DHT22;17195;50.838;7.214;2023-02-01T10:54:36;8.00;99.90
30399;DHT22;17195;50.838;7.214;2023-02-01T10:57:07;8.10;99.90
30399;DHT22;17195;50.838;7.214;2023-02-01T10:59:33;8.10;99.90
30399;DHT22;17195;50.838;7.214;2023-02-01T11:02:14;8.20;99.90
30399;DHT22;17195;50.838;7.214;2023-02-01T11:04:41;8.20;99.90
30399;DHT22;17195;50.838;7.214;2023-02-01T11:07:12;8.30;99.90
30399;DHT22;17195;50.838;7.214;2023-02-01T11:09:40;8.50;99.90
30399;DHT22;17195;50.838;7.214;2023-02-01T11:12:30;8.40;99.90
30399;DHT22;17195;50.838;7.214;2023-02-01T11:15:03;8.50;99.90
30399;DHT22;17195;50.838;7.214;2023-02-01T11:17:42;8.70;99.90
30399;DHT22;17195;50.838;7.214;2023-02-01T11:20:15;8.80;99.90
30399;DHT22;17195;50.838;7.214;2023-02-01T11:23:02;8.70;99.90
30399;DHT22;17195;50.838;7.214;2023-02-01T11:25:28;8.50;99.90
30399;DHT22;17195;50.838;7.214;2023-02-01T11:27:55;8.30;99.90
30399;DHT22;17195;50.838;7.214;2023-02-01T11:30:38;8.10;99.90
30399;DHT22;17195;50.838;7.214;2023-02-01T11:33:06;8.10;99.90
30399;DHT22;17195;50.838;7.214;2023-02-01T11:35:38;8.00;99.90
30399;DHT22;17195;50.838;7.214;2023-02-01T11:38:22;8.10;99.90
30399;DHT22;17195;50.838;7.214;2023-02-01T11:40:47;8.20;99.90
30399;DHT22;17195;50.838;7.214;2023-02-01T11:43:22;8.30;99.90
30399;DHT22;17195;50.838;7.214;2023-02-01T11:46:03;8.30;99.90
30399;DHT22;17195;50.838;7.214;2023-02-01T11:48:32;8.20;99.90
30399;DHT22;17195;50.838;7.214;2023-02-01T12:00:02;8.50;99.90
30399;DHT22;17195;50.838;7.214;2023-02-01T12:05:37;8.40;99.90
30399;DHT22;17195;50.838;7.214;2023-02-01T12:14:08;8.20;99.90
30399;DHT22;17195;50.838;7.214;2023-02-01T12:22:12;8.00;99.90
30399;DHT22;17195;50.838;7.214;2023-02-01T12:25:03;8.00;99.90
30399;DHT22;17195;50.838;7.214;2023-02-01T12:30:48;8.00;99.90
30399;DHT22;17195;50.838;7.214;2023-02-01T12:36:12;8.00;99.90
30399;DHT22;17195;50.838;7.214;2023-02-01T12:38:51;8.10;99.90
30399;DHT22;17195;50.838;7.214;2023-02-01T12:44:08;8.20;99.90
30399;DHT22;17195;50.838;7.214;2023-02-01T12:46:57;8.30;99.90
30399;DHT22;17195;50.838;7.214;2023-02-01T12:49:38;8.20;99.90
30399;DHT22;17195;50.838;7.214;2023-02-01T12:52:12;8.20;99.90
30399;DHT22;17195;50.838;7.214;2023-02-01T12:54:48;8.10;99.90
30399;DHT22;17195;50.838;7.214;2023-02-01T12:57:23;8.10;99.90
30399;DHT22;17195;50.838;7.214;2023-02-01T13:05:14;8.10;99.90
30399;DHT22;17195;50.838;7.214;2023-02-01T13:10:33;8.10;99.90
30399;DHT22;17195;50.838;7.214;2023-02-01T13:13:02;8.10;99.90
30399;DHT22;17195;50.838;7.214;2023-02-01T13:15:33;8.10;99.90
30399;DHT22;17195;50.838;7.214;2023-02-01T13:18:03;8.20;99.90
30399;DHT22;17195;50.838;7.214;2023-02-01T13:20:34;8.10;99.90
30399;DHT22;17195;50.838;7.214;2023-02-01T13:23:17;8.10;99.90
30399;DHT22;17195;50.838;7.214;2023-02-01T13:25:49;8.10;99.90
30399;DHT22;17195;50.838;7.214;2023-02-01T13:28:26;8.20;99.90
30399;DHT22;17195;50.838;7.214;2023-02-01T13:33:56;8.10;99.90
30399;DHT22;17195;50.838;7.214;2023-02-01T13:42:00;8.10;99.90
30399;DHT22;17195;50.838;7.214;2023-02-01T13:44:38;8.10;99.90
30399;DHT22;17195;50.838;7.214;2023-02-01T13:47:31;8.00;99.90
30399;DHT22;17195;50.838;7.214;2023-02-01T13:50:01;8.00;99.90
30399;DHT22;17195;50.838;7.214;2023-02-01T13:53:13;7.90;99.90
30399;DHT22;17195;50.838;7.214;2023-02-01T13:57:52;7.90;99.90
30399;DHT22;17195;50.838;7.214;2023-02-01T14:00:42;7.90;99.90
30399;DHT22;17195;50.838;7.214;2023-02-01T14:03:12;8.00;99.90
30399;DHT22;17195;50.838;7.214;2023-02-01T14:21:20;7.90;99.90
30399;DHT22;17195;50.838;7.214;2023-02-01T14:24:34;8.00;99.90
30399;DHT22;17195;50.838;7.214;2023-02-01T14:26:48;8.00;99.90
30399;DHT22;17195;50.838;7.214;2023-02-01T14:29:39;8.00;99.90
30399;DHT22;17195;50.838;7.214;2023-02-01T14:42:25;8.20;99.90
30399;DHT22;17195;50.838;7.214;2023-02-01T14:44:52;8.20;99.90
30399;DHT22;17195;50.838;7.214;2023-02-01T14:50:13;8.20;99.90
30399;DHT22;17195;50.838;7.214;2023-02-01T14:52:46;8.20;99.90
30399;DHT22;17195;50.838;7.214;2023-02-01T15:01:27;8.20;99.90
30399;DHT22;17195;50.838;7.214;2023-02-01T15:04:08;8.20;99.90
30399;DHT22;17195;50.838;7.214;2023-02-01T15:09:24;8.30;99.90
30399;DHT22;17195;50.838;7.214;2023-02-01T15:14:29;8.30;99.90
30399;DHT22;17195;50.838;7.214;2023-02-01T15:16:55;8.30;99.90
30399;DHT22;17195;50.838;7.214;2023-02-01T15:19:25;8.40;99.90
30399;DHT22;17195;50.838;7.214;2023-02-01T15:21:53;8.40;99.90
30399;DHT22;17195;50.838;7.214;2023-02-01T15:24:25;8.40;99.90
30399;DHT22;17195;50.838;7.214;2023-02-01T15:26:55;8.40;99.90
30399;DHT22;17195;50.838;7.214;2023-02-01T15:29:22;8.40;99.90
30399;DHT22;17195;50.838;7.214;2023-02-01T15:31:53;8.40;99.90
30399;DHT22;17195;50.838;7.214;2023-02-01T15:34:19;8.40;99.90
30399;DHT22;17195;50.838;7.214;2023-02-01T15:36:46;8.40;99.90
30399;DHT22;17195;50.838;7.214;2023-02-01T15:39:15;8.40;99.90
30399;DHT22;17195;50.838;7.214;2023-02-01T15:41:54;8.40;99.90
30399;DHT22;17195;50.838;7.214;2023-02-01T15:46:58;8.40;99.90
30399;DHT22;17195;50.838;7.214;2023-02-01T15:49:30;8.40;99.90
30399;DHT22;17195;50.838;7.214;2023-02-01T15:52:00;8.40;99.90
30399;DHT22;17195;50.838;7.214;2023-02-01T15:54:36;8.40;99.90
30399;DHT22;17195;50.838;7.214;2023-02-01T15:57:04;8.40;99.90
30399;DHT22;17195;50.838;7.214;2023-02-01T15:59:43;8.40;99.90
30399;DHT22;17195;50.838;7.214;2023-02-01T16:04:59;8.30;99.90
30399;DHT22;17195;50.838;7.214;2023-02-01T16:07:32;8.30;99.90
30399;DHT22;17195;50.838;7.214;2023-02-01T16:10:00;8.30;99.90
30399;DHT22;17195;50.838;7.214;2023-02-01T16:12:46;8.30;99.90
30399;DHT22;17195;50.838;7.214;2023-02-01T16:15:12;8.30;99.90
30399;DHT22;17195;50.838;7.214;2023-02-01T16:17:38;8.30;99.90
30399;DHT22;17195;50.838;7.214;2023-02-01T16:20:04;8.40;99.90
30399;DHT22;17195;50.838;7.214;2023-02-01T16:22:29;8.30;99.90
30399;DHT22;17195;50.838;7.214;2023-02-01T16:24:55;8.40;99.90
30399;DHT22;17195;50.838;7.214;2023-02-01T16:27:21;8.30;99.90
30399;DHT22;17195;50.838;7.214;2023-02-01T16:29:47;8.30;99.90
30399;DHT22;17195;50.838;7.214;2023-02-01T16:32:18;8.10;99.90
30399;DHT22;17195;50.838;7.214;2023-02-01T16:34:45;8.00;99.90
30399;DHT22;17195;50.838;7.214;2023-02-01T16:37:19;7.90;99.90
30399;DHT22;17195;50.838;7.214;2023-02-01T16:39:45;7.80;99.90
30399;DHT22;17195;50.838;7.214;2023-02-01T16:42:12;7.80;99.90
30399;DHT22;17195;50.838;7.214;2023-02-01T16:44:38;7.80;99.90
30399;DHT22;17195;50.838;7.214;2023-02-01T16:47:12;7.70;99.90
30399;DHT22;17195;50.838;7.214;2023-02-01T16:49:40;7.60;99.90
30399;DHT22;17195;50.838;7.214;2023-02-01T16:52:14;7.60;99.90
30399;DHT22;17195;50.838;7.214;2023-02-01T16:54:41;7.60;99.90
30399;DHT22;17195;50.838;7.214;2023-02-01T16:57:12;7.50;99.90
30399;DHT22;17195;50.838;7.214;2023-02-01T16:59:38;7.50;99.90
30399;DHT22;17195;50.838;7.214;2023-02-01T17:02:03;7.50;99.90
30399;DHT22;17195;50.838;7.214;2023-02-01T17:04:29;7.40;99.90
30399;DHT22;17195;50.838;7.214;2023-02-01T17:06:54;7.40;99.90
30399;DHT22;17195;50.838;7.214;2023-02-01T17:09:21;7.40;99.90
30399;DHT22;17195;50.838;7.214;2023-02-01T17:11:47;7.40;99.90
30399;DHT22;17195;50.838;7.214;2023-02-01T17:14:20;7.40;99.90
30399;DHT22;17195;50.838;7.214;2023-02-01T17:16:48;7.30;99.90
30399;DHT22;17195;50.838;7.214;2023-02-01T17:19:16;7.30;99.90
30399;DHT22;17195;50.838;7.214;2023-02-01T17:21:45;7.30;99.90
30399;DHT22;17195;50.838;7.214;2023-02-01T17:24:13;7.30;99.90
30399;DHT22;17195;50.838;7.214;2023-02-01T17:26:40;7.30;99.90
30399;DHT22;17195;50.838;7.214;2023-02-01T17:29:05;7.30;99.90
30399;DHT22;17195;50.838;7.214;2023-02-01T17:31:33;7.30;99.90
30399;DHT22;17195;50.838;7.214;2023-02-01T17:34:00;7.20;99.90
30399;DHT22;17195;50.838;7.214;2023-02-01T17:36:26;7.20;99.90
30399;DHT22;17195;50.838;7.214;2023-02-01T17:38:51;7.20;99.90
30399;DHT22;17195;50.838;7.214;2023-02-01T17:41:17;7.20;99.90
30399;DHT22;17195;50.838;7.214;2023-02-01T17:43:42;7.10;99.90
30399;DHT22;17195;50.838;7.214;2023-02-01T17:46:15;7.10;99.90
30399;DHT22;17195;50.838;7.214;2023-02-01T17:48:43;7.10;99.90
30399;DHT22;17195;50.838;7.214;2023-02-01T17:51:21;7.10;99.90
30399;DHT22;17195;50.838;7.214;2023-02-01T17:53:48;7.10;99.90
30399;DHT22;17195;50.838;7.214;2023-02-01T17:56:22;7.10;99.90
30399;DHT22;17195;50.838;7.214;2023-02-01T17:58:48;7.10;99.90
30399;DHT22;17195;50.838;7.214;2023-02-01T18:01:17;7.10;99.90
30399;DHT22;17195;50.838;7.214;2023-02-01T18:03:43;7.10;99.90
30399;DHT22;17195;50.838;7.214;2023-02-01T18:06:17;7.10;99.90
30399;DHT22;17195;50.838;7.214;2023-02-01T18:08:43;7.10;99.90
30399;DHT22;17195;50.838;7.214;2023-02-01T18:11:20;7.10;99.90
30399;DHT22;17195;50.838;7.214;2023-02-01T18:13:49;7.10;99.90
30399;DHT22;17195;50.838;7.214;2023-02-01T18:16:33;7.10;99.90
30399;DHT22;17195;50.838;7.214;2023-02-01T18:19:00;7.00;99.90
30399;DHT22;17195;50.838;7.214;2023-02-01T18:21:40;7.10;99.90
30399;DHT22;17195;50.838;7.214;2023-02-01T18:24:11;7.10;99.90
30399;DHT22;17195;50.838;7.214;2023-02-01T18:26:38;7.10;99.90
30399;DHT22;17195;50.838;7.214;2023-02-01T18:29:03;7.10;99.90
30399;DHT22;17195;50.838;7.214;2023-02-01T18:31:30;7.10;99.90
30399;DHT22;17195;50.838;7.214;2023-02-01T18:33:57;7.10;99.90
30399;DHT22;17195;50.838;7.214;2023-02-01T18:36:24;7.10;99.90
30399;DHT22;17195;50.838;7.214;2023-02-01T18:38:50;7.20;99.90
30399;DHT22;17195;50.838;7.214;2023-02-01T18:41:19;7.10;99.90
30399;DHT22;17195;50.838;7.214;2023-02-01T18:43:48;7.20;99.90
30399;DHT22;17195;50.838;7.214;2023-02-01T18:46:15;7.20;99.90
30399;DHT22;17195;50.838;7.214;2023-02-01T18:48:41;7.30;99.90
30399;DHT22;17195;50.838;7.214;2023-02-01T18:51:09;7.30;99.90